Time;durP1;ratioP1;P1;durP2;ratioP2;P2;SDS_P1;SDS_P2;PMS_P1;PMS_P2;Temp;Humidity;BMP_temperature;BMP_pressure;BME280_temperature;BME280_humidity;BME280_pressure;Samples;Min_cycle;Max_cycle;Signal;HPM_P1;HPM_P2
2022/05/10 00:01:08;;;;;;;21.83;19.90;;;14.20;99.90;;;;;;5031059;28;21363;-68
2022/05/10 00:03:38;;;;;;;20.20;18.47;;;14.30;99.90;;;;;;5027344;28;20483;-68
2022/05/10 00:06:06;;;;;;;20.80;18.60;;;14.30;99.90;;;;;;5030402;28;20491;-68
2022/05/10 00:08:33;;;;;;;20.00;18.37;;;14.30;99.90;;;;;;5026120;28;20469;-68
2022/05/10 00:11:00;;;;;;;18.17;16.87;;;14.40;99.90;;;;;;5034242;28;20456;-67
2022/05/10 00:13:28;;;;;;;24.70;19.20;;;14.40;99.90;;;;;;5034311;28;20488;-67
2022/05/10 00:15:57;;;;;;;22.23;19.93;;;14.30;99.90;;;;;;5029736;28;20699;-67
2022/05/10 00:18:28;;;;;;;20.20;18.50;;;14.20;99.90;;;;;;5026040;28;20473;-68
2022/05/10 00:20:56;;;;;;;19.40;17.90;;;14.10;99.90;;;;;;5029813;28;21002;-67
2022/05/10 00:23:23;;;;;;;21.23;19.50;;;14.00;99.90;;;;;;5035006;28;20835;-67
2022/05/10 00:25:50;;;;;;;22.87;21.07;;;14.00;99.90;;;;;;5029267;28;20475;-67
2022/05/10 00:28:18;;;;;;;23.00;21.10;;;13.80;99.90;;;;;;5032261;28;20476;-67
2022/05/10 00:30:45;;;;;;;23.53;21.73;;;13.80;99.90;;;;;;5034354;28;20464;-67
2022/05/10 00:33:19;;;;;;;23.20;21.33;;;13.90;99.90;;;;;;5030373;28;20488;-67
2022/05/10 00:35:46;;;;;;;24.93;22.73;;;13.90;99.90;;;;;;5030051;28;20464;-67
2022/05/10 00:38:15;;;;;;;25.77;22.60;;;13.90;99.90;;;;;;5033665;28;20838;-68
2022/05/10 00:40:42;;;;;;;23.67;21.30;;;13.90;99.90;;;;;;5033635;28;20472;-68
2022/05/10 00:43:17;;;;;;;23.47;21.47;;;13.80;99.90;;;;;;5030538;28;20460;-67
2022/05/10 00:45:57;;;;;;;24.53;22.33;;;13.80;99.90;;;;;;5031012;28;21043;-68
2022/05/10 00:48:31;;;;;;;24.17;21.97;;;13.80;99.90;;;;;;5029228;28;20498;-67
2022/05/10 00:51:04;;;;;;;24.80;22.63;;;13.80;99.90;;;;;;5031414;28;20826;-68
2022/05/10 00:53:49;;;;;;;25.33;22.93;;;13.80;99.90;;;;;;5031904;28;20488;-67
2022/05/10 00:56:24;;;;;;;26.47;23.87;;;13.80;99.90;;;;;;5028984;28;20468;-68
2022/05/10 00:58:56;;;;;;;27.20;24.60;;;13.80;99.90;;;;;;5030315;28;20482;-67
2022/05/10 01:01:29;;;;;;;28.90;26.10;;;13.90;99.90;;;;;;5031970;28;20472;-68
2022/05/10 01:04:04;;;;;;;28.30;25.63;;;14.00;99.90;;;;;;5030883;28;20975;-67
2022/05/10 01:06:37;;;;;;;28.37;25.67;;;14.00;99.90;;;;;;5029583;28;20472;-67
2022/05/10 01:09:11;;;;;;;27.90;24.90;;;14.00;99.90;;;;;;5033169;28;20559;-68
2022/05/10 01:11:43;;;;;;;27.20;24.67;;;14.20;99.90;;;;;;5035502;28;20464;-68
2022/05/10 01:14:17;;;;;;;25.60;23.37;;;14.20;99.90;;;;;;5038710;28;20495;-68
2022/05/10 01:16:44;;;;;;;26.00;23.50;;;14.30;99.90;;;;;;5032220;28;20456;-68
2022/05/10 01:19:12;;;;;;;25.57;23.37;;;14.20;99.90;;;;;;5026909;28;20479;-67
2022/05/10 01:21:50;;;;;;;27.13;24.77;;;14.20;99.90;;;;;;5033047;28;20476;-68
2022/05/10 01:24:57;;;;;;;25.07;22.70;;;14.10;99.90;;;;;;5036133;28;20482;-67
2022/05/10 01:27:50;;;;;;;26.10;23.53;;;14.00;99.90;;;;;;5026520;28;20483;-67
2022/05/10 01:30:21;;;;;;;25.50;23.40;;;13.90;99.90;;;;;;5023237;28;20472;-68
2022/05/10 01:35:46;;;;;;;27.50;24.53;;;13.70;99.90;;;;;;5033422;28;20456;-67
2022/05/10 01:38:28;;;;;;;26.53;24.20;;;13.60;99.90;;;;;;5035592;28;21236;-67
2022/05/10 01:41:03;;;;;;;26.20;23.50;;;13.60;99.90;;;;;;5029525;28;20552;-67
2022/05/10 01:43:41;;;;;;;28.00;25.07;;;13.60;99.90;;;;;;5037191;28;20471;-68
2022/05/10 01:46:13;;;;;;;24.70;22.50;;;13.60;99.90;;;;;;5032166;28;20843;-67
2022/05/10 01:48:42;;;;;;;25.90;23.67;;;13.60;99.90;;;;;;5027924;28;20460;-68
2022/05/10 01:51:14;;;;;;;24.57;22.10;;;13.50;99.90;;;;;;5033721;28;20471;-67
2022/05/10 01:53:42;;;;;;;28.23;25.47;;;13.50;99.90;;;;;;5031657;28;20492;-68
2022/05/10 01:56:12;;;;;;;28.60;25.90;;;13.50;99.90;;;;;;5030393;28;20468;-67
2022/05/10 01:58:42;;;;;;;28.70;24.50;;;13.40;99.90;;;;;;5034544;28;20495;-67
2022/05/10 02:01:15;;;;;;;27.17;24.47;;;13.40;99.90;;;;;;5035531;28;20475;-67
2022/05/10 02:03:45;;;;;;;27.77;24.93;;;13.40;99.90;;;;;;5028521;28;20512;-67
2022/05/10 02:06:20;;;;;;;28.60;26.17;;;13.40;99.90;;;;;;5030462;28;20476;-67
2022/05/10 02:08:52;;;;;;;26.97;24.30;;;13.40;99.90;;;;;;5034010;28;20469;-67
2022/05/10 02:11:19;;;;;;;27.80;25.30;;;13.40;99.90;;;;;;5029178;28;20857;-67
2022/05/10 02:13:51;;;;;;;26.30;23.83;;;13.40;99.90;;;;;;5027736;28;21136;-68
2022/05/10 02:16:24;;;;;;;26.77;24.57;;;13.40;99.90;;;;;;5037492;28;20479;-67
2022/05/10 02:18:56;;;;;;;26.57;24.30;;;13.40;99.90;;;;;;5030164;28;20481;-68
2022/05/10 02:21:27;;;;;;;27.00;24.90;;;13.30;99.90;;;;;;5029402;28;20482;-68
2022/05/10 02:23:58;;;;;;;27.83;25.43;;;13.20;99.90;;;;;;5028736;28;20473;-67
2022/05/10 02:26:31;;;;;;;28.63;25.57;;;13.20;99.90;;;;;;5032761;28;20468;-67
2022/05/10 02:29:04;;;;;;;28.43;25.63;;;13.20;99.90;;;;;;5028037;28;20480;-67
2022/05/10 02:33:06;;;;;;;27.70;25.37;;;13.10;99.90;;;;;;5034911;28;20467;-68
2022/05/10 02:34:27;;;;;;;29.13;26.53;;;13.00;99.90;;;;;;5029555;28;20499;-67
2022/05/10 02:36:54;;;;;;;27.30;24.90;;;13.00;99.90;;;;;;5028664;28;20884;-67
2022/05/10 02:39:21;;;;;;;27.20;24.83;;;13.00;99.90;;;;;;5029876;28;20471;-68
2022/05/10 02:41:50;;;;;;;29.00;26.43;;;13.10;99.90;;;;;;5025986;28;20461;-68
2022/05/10 02:44:18;;;;;;;27.00;24.70;;;13.10;99.90;;;;;;5029345;28;20468;-68
2022/05/10 02:46:46;;;;;;;25.40;23.30;;;13.10;99.90;;;;;;5034152;28;20969;-68
2022/05/10 02:49:13;;;;;;;25.90;23.63;;;13.10;99.90;;;;;;5027172;28;20472;-68
2022/05/10 02:51:40;;;;;;;27.10;24.67;;;13.10;99.90;;;;;;5031236;28;20471;-69
2022/05/10 02:54:06;;;;;;;25.87;23.43;;;13.10;99.90;;;;;;5026831;28;20490;-68
2022/05/10 02:56:33;;;;;;;28.73;25.73;;;13.00;99.90;;;;;;5027836;28;20472;-68
2022/05/10 02:59:06;;;;;;;27.30;24.47;;;13.10;99.90;;;;;;5027228;28;20483;-68
2022/05/10 03:01:37;;;;;;;26.47;23.80;;;13.10;99.90;;;;;;5025992;28;20468;-69
2022/05/10 03:04:08;;;;;;;27.30;24.70;;;13.10;99.90;;;;;;5030268;28;20464;-68
2022/05/10 03:06:37;;;;;;;29.73;26.97;;;13.00;99.90;;;;;;5033581;28;20468;-68
2022/05/10 03:09:05;;;;;;;29.80;25.30;;;12.90;99.90;;;;;;5027077;28;20832;-68
2022/05/10 03:11:32;;;;;;;26.07;23.60;;;12.90;99.90;;;;;;5030162;28;20460;-68
2022/05/10 03:14:00;;;;;;;26.23;24.03;;;12.90;99.90;;;;;;5024149;28;20598;-68
2022/05/10 03:16:27;;;;;;;27.00;24.60;;;12.90;99.90;;;;;;5029394;28;20469;-69
2022/05/10 03:18:54;;;;;;;28.33;24.83;;;12.90;99.90;;;;;;5028038;28;20468;-68
2022/05/10 03:21:24;;;;;;;27.10;24.43;;;13.00;99.90;;;;;;5032706;28;20486;-68
2022/05/10 03:23:51;;;;;;;25.80;23.50;;;13.10;99.90;;;;;;5026834;28;20931;-69
2022/05/10 03:26:23;;;;;;;26.47;23.90;;;13.10;99.90;;;;;;5033269;28;20483;-68
2022/05/10 03:28:50;;;;;;;26.63;24.17;;;13.20;99.90;;;;;;5028792;28;20468;-69
2022/05/10 03:31:20;;;;;;;25.93;23.63;;;13.30;99.90;;;;;;5026511;28;20527;-68
2022/05/10 03:34:53;;;;;;;26.47;24.27;;;12.90;99.90;;;;;;5031326;28;20488;-69
2022/05/10 03:36:35;;;;;;;26.00;23.60;;;12.80;99.90;;;;;;5033912;28;20651;-67
2022/05/10 03:39:03;;;;;;;27.47;24.97;;;12.90;99.90;;;;;;5033019;28;20680;-68
2022/05/10 03:41:29;;;;;;;27.37;22.50;;;12.90;99.90;;;;;;5026945;28;20460;-67
2022/05/10 03:43:57;;;;;;;27.87;25.07;;;12.90;99.90;;;;;;5034725;28;20474;-67
2022/05/10 03:46:23;;;;;;;25.80;23.47;;;13.00;99.90;;;;;;5029027;28;20464;-67
2022/05/10 03:48:50;;;;;;;25.93;23.53;;;13.00;99.90;;;;;;5026052;28;20465;-68
2022/05/10 03:51:18;;;;;;;25.90;23.57;;;13.10;99.90;;;;;;5026843;28;20473;-67
2022/05/10 03:53:47;;;;;;;26.40;24.07;;;12.80;99.90;;;;;;5029219;28;20488;-67
2022/05/10 03:56:15;;;;;;;26.83;24.47;;;12.60;99.90;;;;;;5028334;28;20468;-69
2022/05/10 03:58:41;;;;;;;25.40;23.33;;;12.60;99.90;;;;;;5024063;28;20485;-67
2022/05/10 04:01:09;;;;;;;28.93;26.50;;;12.50;99.90;;;;;;5026433;28;20960;-67
2022/05/10 04:03:36;;;;;;;27.13;24.63;;;12.40;99.90;;;;;;5004820;28;21049;-67
2022/05/10 04:06:03;;;;;;;28.40;25.57;;;12.50;99.90;;;;;;5004016;28;20492;-68
2022/05/10 04:08:30;;;;;;;30.80;25.37;;;12.50;99.90;;;;;;5004003;28;20461;-68
2022/05/10 04:11:02;;;;;;;26.43;23.90;;;12.60;99.90;;;;;;5004182;28;20468;-67
2022/05/10 04:13:29;;;;;;;26.33;23.90;;;12.60;99.90;;;;;;5003494;28;20503;-67
2022/05/10 04:15:56;;;;;;;26.07;23.97;;;12.60;99.90;;;;;;5005305;28;20623;-68
2022/05/10 04:18:23;;;;;;;25.80;23.20;;;12.60;99.90;;;;;;5003394;28;20467;-66
2022/05/10 04:20:50;;;;;;;25.93;23.40;;;12.60;99.90;;;;;;5003488;28;20461;-67
2022/05/10 04:23:17;;;;;;;25.50;23.10;;;12.60;99.90;;;;;;5004251;28;20464;-67
2022/05/10 04:25:44;;;;;;;26.90;23.33;;;12.60;99.90;;;;;;5003385;28;20463;-67
2022/05/10 04:28:12;;;;;;;26.70;24.00;;;12.70;99.90;;;;;;5003812;28;20465;-67
2022/05/10 04:30:39;;;;;;;25.67;23.13;;;12.80;99.90;;;;;;5003940;28;20858;-67
2022/05/10 04:33:07;;;;;;;26.37;23.60;;;12.90;99.90;;;;;;5004918;28;20465;-67
2022/05/10 04:35:34;;;;;;;27.50;23.20;;;12.90;99.90;;;;;;5003257;28;20529;-66
2022/05/10 04:38:03;;;;;;;24.70;22.70;;;12.90;99.90;;;;;;5004057;28;20473;-66
2022/05/10 04:43:18;;;;;;;24.33;22.23;;;12.90;99.90;;;;;;5004653;28;20499;-67
2022/05/10 04:45:44;;;;;;;25.27;22.80;;;12.90;99.90;;;;;;5003746;28;20573;-67
2022/05/10 04:48:12;;;;;;;25.03;22.53;;;12.90;99.90;;;;;;5003192;28;20469;-67
2022/05/10 04:50:39;;;;;;;26.53;23.87;;;13.00;99.90;;;;;;5004216;28;20467;-66
2022/05/10 04:53:06;;;;;;;24.07;21.90;;;13.20;99.90;;;;;;5003725;28;20767;-66
2022/05/10 04:55:33;;;;;;;25.20;22.60;;;13.30;99.90;;;;;;5002276;28;20517;-67
2022/05/10 04:58:00;;;;;;;28.27;22.53;;;13.30;99.90;;;;;;5003943;28;21191;-68
2022/05/10 05:00:29;;;;;;;29.27;22.10;;;13.50;99.90;;;;;;5004293;28;20480;-67
2022/05/10 05:02:56;;;;;;;33.30;22.80;;;13.50;99.90;;;;;;5004803;28;20472;-67
2022/05/10 05:05:24;;;;;;;25.27;22.90;;;13.70;99.90;;;;;;5003532;28;20991;-67
2022/05/10 05:07:51;;;;;;;26.63;23.20;;;13.80;99.90;;;;;;5004487;28;20930;-66
2022/05/10 05:10:18;;;;;;;27.50;22.67;;;13.90;99.90;;;;;;5007445;28;20465;-67
2022/05/10 05:12:45;;;;;;;24.53;22.10;;;14.00;99.90;;;;;;5008401;28;20515;-67
2022/05/10 05:15:13;;;;;;;33.20;22.53;;;14.10;99.90;;;;;;5008115;28;21238;-67
2022/05/10 05:17:41;;;;;;;28.27;20.93;;;14.10;99.90;;;;;;5008607;28;20634;-67
2022/05/10 05:20:09;;;;;;;31.20;23.00;;;14.30;99.90;;;;;;5008257;28;20468;-67
2022/05/10 05:22:37;;;;;;;38.60;22.10;;;14.40;99.90;;;;;;5007761;28;20538;-68
2022/05/10 05:25:05;;;;;;;47.93;23.60;;;14.40;99.90;;;;;;5008361;28;20951;-67
2022/05/10 05:27:32;;;;;;;39.77;23.40;;;14.40;99.90;;;;;;5008866;28;20469;-66
2022/05/10 05:29:59;;;;;;;49.33;24.50;;;14.50;99.90;;;;;;5031261;28;20475;-67
2022/05/10 05:32:29;;;;;;;55.53;24.67;;;14.50;99.90;;;;;;5033954;28;20931;-67
2022/05/10 05:34:58;;;;;;;46.80;22.53;;;14.60;99.90;;;;;;5027989;28;20492;-67
2022/05/10 05:37:34;;;;;;;55.77;25.00;;;14.60;99.90;;;;;;5009680;28;20460;-67
2022/05/10 05:40:01;;;;;;;51.87;24.60;;;14.70;99.90;;;;;;5007731;28;20460;-67
2022/05/10 05:42:28;;;;;;;50.57;22.90;;;14.70;99.90;;;;;;5008231;28;20471;-67
2022/05/10 05:44:55;;;;;;;50.67;22.90;;;14.80;99.90;;;;;;5008306;28;20909;-67
2022/05/10 05:47:22;;;;;;;41.33;25.50;;;14.90;99.90;;;;;;5007544;28;20519;-66
2022/05/10 05:49:49;;;;;;;32.20;24.17;;;15.00;99.90;;;;;;5007246;28;20471;-67
2022/05/10 05:52:20;;;;;;;42.13;23.40;;;15.10;99.90;;;;;;5008551;28;21039;-68
2022/05/10 05:54:47;;;;;;;38.17;22.57;;;15.20;99.90;;;;;;5008162;28;21186;-68
2022/05/10 05:57:14;;;;;;;51.47;23.67;;;15.40;99.90;;;;;;5017256;28;20469;-67
2022/05/10 05:59:40;;;;;;;36.70;23.53;;;15.60;99.90;;;;;;5031290;28;21045;-67
2022/05/10 06:02:11;;;;;;;37.53;22.77;;;15.70;99.90;;;;;;5003699;28;20472;-66
2022/05/10 06:04:38;;;;;;;34.53;22.43;;;15.80;99.90;;;;;;5005935;28;21527;-67
2022/05/10 06:07:06;;;;;;;39.77;23.33;;;15.80;99.90;;;;;;5005251;28;20468;-68
2022/05/10 06:09:34;;;;;;;32.57;22.07;;;16.00;99.90;;;;;;5005447;28;20460;-67
2022/05/10 06:12:01;;;;;;;33.40;23.23;;;16.20;99.90;;;;;;5005085;28;20468;-67
2022/05/10 06:14:28;;;;;;;29.40;21.17;;;16.30;99.90;;;;;;5005867;28;21033;-67
2022/05/10 06:16:57;;;;;;;35.67;22.00;;;16.40;99.90;;;;;;5005859;28;20465;-68
2022/05/10 06:19:25;;;;;;;37.33;24.57;;;16.60;99.90;;;;;;5005093;28;20463;-68
2022/05/10 06:21:52;;;;;;;47.33;23.30;;;16.80;99.90;;;;;;5005585;28;20468;-68
2022/05/10 06:24:19;;;;;;;32.87;22.43;;;16.90;99.90;;;;;;5005490;28;20508;-67
2022/05/10 06:26:48;;;;;;;35.80;23.23;;;16.90;99.90;;;;;;5004661;28;20471;-67
2022/05/10 06:29:14;;;;;;;29.53;23.13;;;17.00;99.90;;;;;;5003523;28;20514;-68
2022/05/10 06:31:42;;;;;;;37.43;21.70;;;17.10;99.90;;;;;;5005425;28;20479;-67
2022/05/10 06:34:10;;;;;;;36.03;22.80;;;17.30;99.90;;;;;;5006380;28;20805;-68
2022/05/10 06:36:37;;;;;;;29.47;22.07;;;17.50;99.90;;;;;;5004274;28;20475;-67
2022/05/10 06:39:05;;;;;;;46.50;22.63;;;17.60;99.90;;;;;;5005090;28;20474;-68
2022/05/10 06:41:32;;;;;;;39.87;23.00;;;17.80;99.90;;;;;;5005289;28;20769;-68
2022/05/10 06:44:01;;;;;;;29.50;22.07;;;18.00;99.90;;;;;;5005695;28;20990;-68
2022/05/10 06:46:30;;;;;;;36.87;23.30;;;18.30;99.90;;;;;;5004820;28;20461;-68
2022/05/10 06:48:57;;;;;;;37.07;21.70;;;18.60;99.90;;;;;;5004265;28;20557;-68
2022/05/10 06:51:25;;;;;;;27.20;21.33;;;18.90;99.90;;;;;;5005760;28;20457;-67
2022/05/10 06:53:53;;;;;;;35.57;21.80;;;19.20;99.90;;;;;;5005061;28;20471;-68
2022/05/10 06:56:20;;;;;;;30.93;22.37;;;19.30;99.90;;;;;;5004105;28;20930;-68
2022/05/10 06:58:48;;;;;;;34.10;22.27;;;19.60;99.90;;;;;;5003051;28;20488;-68
2022/05/10 07:01:17;;;;;;;32.20;20.60;;;19.90;99.90;;;;;;5004455;28;21293;-68
2022/05/10 07:03:46;;;;;;;52.67;21.40;;;20.50;99.90;;;;;;5003363;28;20461;-68
2022/05/10 07:06:16;;;;;;;39.23;22.10;;;20.90;99.90;;;;;;5005580;28;20464;-68
2022/05/10 07:08:43;;;;;;;45.50;21.07;;;21.20;99.90;;;;;;5004674;28;20688;-68
2022/05/10 07:11:10;;;;;;;26.37;20.33;;;21.30;99.90;;;;;;5004757;28;20500;-67
2022/05/10 07:13:37;;;;;;;35.13;20.83;;;21.50;99.90;;;;;;5004601;28;20719;-68
2022/05/10 07:16:05;;;;;;;35.43;21.33;;;21.50;99.90;;;;;;5004411;28;20574;-68
2022/05/10 07:18:33;;;;;;;34.20;21.90;;;21.50;99.90;;;;;;5002792;28;20477;-68
2022/05/10 07:21:00;;;;;;;45.90;22.70;;;21.70;99.90;;;;;;5002312;28;20532;-68
2022/05/10 07:23:32;;;;;;;37.80;22.30;;;21.90;99.90;;;;;;5004376;28;20464;-68
2022/05/10 07:25:59;;;;;;;26.53;20.83;;;21.90;99.90;;;;;;5005137;28;20560;-68
2022/05/10 07:28:29;;;;;;;34.10;20.93;;;21.90;99.90;;;;;;5002076;28;21247;-68
2022/05/10 07:30:57;;;;;;;29.63;20.80;;;22.00;99.90;;;;;;5004098;28;20968;-68
2022/05/10 07:33:25;;;;;;;38.23;21.77;;;22.10;99.90;;;;;;5003003;28;20519;-69
2022/05/10 07:38:38;;;;;;;34.87;22.30;;;22.20;99.90;;;;;;5003842;28;20948;-68
2022/05/10 07:41:05;;;;;;;33.67;20.57;;;22.10;99.90;;;;;;5004032;28;20759;-68
2022/05/10 07:43:35;;;;;;;31.97;20.87;;;22.20;99.90;;;;;;5003825;28;20858;-68
2022/05/10 07:46:01;;;;;;;30.70;19.60;;;22.30;99.90;;;;;;5003061;28;20457;-68
2022/05/10 07:48:29;;;;;;;38.07;21.40;;;22.20;99.90;;;;;;5003399;28;20456;-69
2022/05/10 07:50:57;;;;;;;41.10;21.93;;;22.20;99.90;;;;;;5003778;28;20846;-69
2022/05/10 07:53:24;;;;;;;26.87;21.10;;;22.20;99.90;;;;;;5004866;28;20561;-68
2022/05/10 07:55:51;;;;;;;21.97;19.97;;;22.30;99.90;;;;;;5003495;28;20831;-68
2022/05/10 07:58:18;;;;;;;21.53;19.83;;;22.70;99.90;;;;;;5003346;28;21005;-68
2022/05/10 08:00:45;;;;;;;20.63;19.17;;;22.90;99.90;;;;;;5003185;28;21312;-67
2022/05/10 08:03:14;;;;;;;20.97;19.37;;;23.00;99.90;;;;;;5002980;28;20477;-68
2022/05/10 08:08:24;;;;;;;20.67;18.83;;;23.30;99.90;;;;;;5004802;28;20460;-68
2022/05/10 08:10:53;;;;;;;19.53;18.13;;;23.60;99.90;;;;;;5003628;28;20460;-69
2022/05/10 08:13:22;;;;;;;19.57;18.20;;;23.70;99.90;;;;;;5004095;28;20457;-69
2022/05/10 08:15:50;;;;;;;20.13;18.37;;;23.90;99.90;;;;;;5002585;28;21042;-68
2022/05/10 08:18:18;;;;;;;21.40;19.30;;;24.20;99.90;;;;;;5003407;28;20586;-68
2022/05/10 08:20:46;;;;;;;20.07;18.50;;;24.70;99.90;;;;;;5003212;28;20461;-69
2022/05/10 08:23:16;;;;;;;20.00;18.70;;;24.90;99.90;;;;;;5004090;28;21074;-69
2022/05/10 08:25:44;;;;;;;19.63;17.93;;;25.50;99.90;;;;;;5003116;28;20971;-68
2022/05/10 08:28:14;;;;;;;19.40;18.10;;;26.10;99.90;;;;;;5002943;28;21510;-68
2022/05/10 08:30:42;;;;;;;18.90;17.50;;;26.60;99.90;;;;;;5003663;28;20452;-68
2022/05/10 08:33:10;;;;;;;19.97;18.67;;;27.40;99.90;;;;;;5003236;28;20837;-68
2022/05/10 08:35:37;;;;;;;19.80;18.33;;;27.90;97.20;;;;;;5003023;28;20949;-68
2022/05/10 08:38:04;;;;;;;19.33;17.93;;;28.10;96.70;;;;;;5003520;28;20539;-68
2022/05/10 08:40:34;;;;;;;19.03;17.93;;;27.10;96.30;;;;;;5003922;28;20594;-68
2022/05/10 08:43:06;;;;;;;18.93;17.83;;;26.50;97.60;;;;;;5003593;28;20941;-69
2022/05/10 08:45:38;;;;;;;19.67;18.10;;;26.50;97.30;;;;;;5006743;28;20472;-69
2022/05/10 08:48:06;;;;;;;18.60;17.50;;;26.30;96.60;;;;;;5006837;28;20476;-69
2022/05/10 08:50:33;;;;;;;18.50;17.30;;;26.70;95.30;;;;;;5006883;28;20468;-69
2022/05/10 08:53:01;;;;;;;19.03;18.03;;;26.40;94.10;;;;;;5006412;28;20479;-68
2022/05/10 08:55:31;;;;;;;18.20;17.20;;;26.30;93.90;;;;;;5006756;28;20492;-67
2022/05/10 08:58:08;;;;;;;18.40;17.30;;;26.20;94.50;;;;;;5030677;28;20917;-68
2022/05/10 09:00:39;;;;;;;18.80;17.50;;;26.40;94.20;;;;;;5010816;28;20471;-68
2022/05/10 09:03:21;;;;;;;18.97;17.43;;;26.10;93.90;;;;;;5006607;28;20471;-68
2022/05/10 09:05:49;;;;;;;18.23;17.23;;;26.20;93.50;;;;;;5006618;28;20495;-68
2022/05/10 09:08:24;;;;;;;19.30;18.00;;;26.20;93.50;;;;;;5006543;28;20479;-68
2022/05/10 09:10:54;;;;;;;18.40;17.07;;;26.40;93.30;;;;;;5007352;28;20451;-70
2022/05/10 09:13:23;;;;;;;18.17;17.07;;;26.70;92.80;;;;;;5005857;28;20496;-68
2022/05/10 09:15:52;;;;;;;18.63;17.63;;;26.40;92.60;;;;;;5006946;28;20526;-68
2022/05/10 09:18:22;;;;;;;17.60;16.63;;;26.60;92.00;;;;;;5006701;28;20511;-68
2022/05/10 09:20:59;;;;;;;18.20;17.00;;;26.50;93.00;;;;;;5006455;28;21329;-68
2022/05/10 09:23:33;;;;;;;18.23;17.10;;;26.80;93.10;;;;;;5005923;28;20490;-68
2022/05/10 09:26:01;;;;;;;18.63;17.37;;;26.80;91.40;;;;;;5006646;28;20477;-68
2022/05/10 09:28:36;;;;;;;19.50;17.50;;;27.20;91.50;;;;;;5006819;28;20926;-68
2022/05/10 09:36:54;;;;;;;18.70;17.40;;;27.90;89.40;;;;;;5006073;28;22542;-68
2022/05/10 09:39:29;;;;;;;17.73;16.53;;;28.30;89.10;;;;;;5005385;28;20796;-69
2022/05/10 09:41:56;;;;;;;18.30;17.40;;;28.30;86.00;;;;;;5006827;28;20483;-68
2022/05/10 09:44:26;;;;;;;17.77;16.57;;;28.50;84.50;;;;;;5006712;28;20483;-68
2022/05/10 09:47:12;;;;;;;19.10;17.80;;;28.10;83.40;;;;;;5007021;28;20689;-68
2022/05/10 09:49:40;;;;;;;17.77;16.70;;;27.60;85.00;;;;;;5006349;28;20497;-69
2022/05/10 09:52:16;;;;;;;18.53;17.17;;;27.60;82.00;;;;;;5006449;28;20465;-68
2022/05/10 09:54:45;;;;;;;18.80;17.23;;;27.50;83.70;;;;;;5005621;28;20532;-68
2022/05/10 09:57:27;;;;;;;18.47;17.13;;;27.70;81.00;;;;;;5009157;28;20487;-68
2022/05/10 09:59:55;;;;;;;16.87;16.00;;;27.70;81.20;;;;;;5029138;28;20515;-68
2022/05/10 10:02:31;;;;;;;17.17;15.90;;;27.90;79.20;;;;;;5031301;28;20476;-68
2022/05/10 10:04:59;;;;;;;17.27;16.37;;;27.80;78.70;;;;;;5032832;28;20491;-68
2022/05/10 10:07:28;;;;;;;17.60;16.70;;;27.50;79.40;;;;;;5019578;28;20469;-68
2022/05/10 10:09:56;;;;;;;17.40;16.40;;;27.60;83.30;;;;;;5004846;28;20453;-68
2022/05/10 10:12:34;;;;;;;18.27;17.13;;;27.60;83.20;;;;;;5006250;28;21101;-68
2022/05/10 10:15:05;;;;;;;17.87;17.00;;;27.70;80.60;;;;;;5005421;28;20912;-68
2022/05/10 10:17:37;;;;;;;17.80;16.80;;;28.00;81.50;;;;;;5005101;28;20560;-71
2022/05/10 10:20:13;;;;;;;16.93;16.13;;;28.30;77.60;;;;;;5005543;28;20480;-68
2022/05/10 10:22:43;;;;;;;18.13;16.93;;;28.30;78.20;;;;;;5004865;28;20547;-68
2022/05/10 10:25:19;;;;;;;18.03;16.93;;;27.90;77.00;;;;;;5004807;28;20464;-69
2022/05/10 10:27:50;;;;;;;16.83;15.93;;;27.20;74.90;;;;;;5004414;28;20998;-67
2022/05/10 10:30:23;;;;;;;18.03;16.20;;;27.10;75.10;;;;;;5003555;28;20503;-69
2022/05/10 10:32:55;;;;;;;17.10;16.20;;;26.60;76.70;;;;;;5003893;28;20479;-68
2022/05/10 10:35:32;;;;;;;18.47;16.57;;;26.50;77.70;;;;;;5004235;28;20595;-68
2022/05/10 10:38:08;;;;;;;17.33;15.97;;;26.30;78.00;;;;;;5002929;28;20479;-69
2022/05/10 10:40:40;;;;;;;18.87;17.03;;;26.40;77.80;;;;;;5004721;28;20558;-68
2022/05/10 10:43:14;;;;;;;17.90;16.90;;;26.80;78.10;;;;;;5004762;28;20503;-69
2022/05/10 10:45:46;;;;;;;18.13;16.93;;;26.30;79.60;;;;;;5004507;28;20474;-68
2022/05/10 10:48:27;;;;;;;18.30;17.20;;;26.80;79.00;;;;;;5002419;28;21049;-68
2022/05/10 10:50:54;;;;;;;18.17;16.97;;;27.20;78.80;;;;;;5005225;28;20461;-68
2022/05/10 10:53:23;;;;;;;16.90;16.00;;;27.70;77.40;;;;;;5018020;28;20794;-68
2022/05/10 10:56:39;;;;;;;16.53;15.70;;;27.40;75.90;;;;;;5032144;28;21222;-68
2022/05/10 10:59:25;;;;;;;17.47;16.67;;;28.10;77.60;;;;;;4956355;28;20491;-68
2022/05/10 11:02:09;;;;;;;18.40;17.30;;;29.10;75.80;;;;;;4981206;28;20813;-68
2022/05/10 11:05:05;;;;;;;19.77;18.27;;;28.90;71.20;;;;;;5022014;28;20480;-68
2022/05/10 11:07:43;;;;;;;19.40;18.30;;;29.00;72.10;;;;;;5027879;28;20460;-69
2022/05/10 11:10:13;;;;;;;19.03;17.83;;;29.20;67.80;;;;;;5007205;28;21140;-68
2022/05/10 11:12:53;;;;;;;18.47;17.47;;;29.00;68.70;;;;;;5004299;28;20522;-69
2022/05/10 11:15:37;;;;;;;19.30;18.10;;;28.80;70.50;;;;;;5004426;28;20549;-69
2022/05/10 11:18:28;;;;;;;17.33;16.30;;;29.00;71.70;;;;;;5003958;28;20982;-68
2022/05/10 11:21:06;;;;;;;19.47;18.17;;;28.80;71.00;;;;;;5004236;28;20917;-68
2022/05/10 11:23:39;;;;;;;18.73;17.63;;;29.60;70.20;;;;;;5004225;28;20468;-69
2022/05/10 11:26:21;;;;;;;18.40;17.50;;;29.90;70.60;;;;;;5005215;28;20468;-68
2022/05/10 11:29:14;;;;;;;20.30;18.80;;;29.70;67.60;;;;;;5004802;28;20868;-69
2022/05/10 11:31:48;;;;;;;19.07;17.80;;;29.50;69.70;;;;;;5004963;28;20547;-68
2022/05/10 11:34:39;;;;;;;18.97;17.37;;;29.80;67.10;;;;;;5003866;28;20457;-68
2022/05/10 11:37:10;;;;;;;18.03;17.13;;;29.90;68.90;;;;;;5003853;28;20534;-69
2022/05/10 11:40:00;;;;;;;18.63;17.53;;;30.20;69.90;;;;;;5003673;28;20965;-68
2022/05/10 11:42:32;;;;;;;18.30;17.30;;;30.40;66.20;;;;;;5003669;28;20983;-69
2022/05/10 11:45:44;;;;;;;18.33;17.30;;;30.50;67.30;;;;;;5004755;28;20575;-69
2022/05/10 11:48:51;;;;;;;18.97;17.40;;;30.90;61.90;;;;;;5004354;28;21015;-69
2022/05/10 11:51:43;;;;;;;18.40;17.30;;;29.40;63.40;;;;;;5003452;28;21183;-68
2022/05/10 11:54:42;;;;;;;17.93;16.70;;;29.40;63.90;;;;;;5004012;28;20968;-69
2022/05/10 11:57:12;;;;;;;19.30;17.73;;;30.60;61.90;;;;;;5003966;28;20560;-69
2022/05/10 11:59:41;;;;;;;19.00;17.20;;;31.50;61.40;;;;;;5002809;28;21432;-69
2022/05/10 12:02:32;;;;;;;20.03;18.37;;;32.10;60.30;;;;;;5004001;28;20452;-69
2022/05/10 12:05:21;;;;;;;20.03;17.97;;;32.30;59.90;;;;;;5003519;28;21081;-69
2022/05/10 12:07:51;;;;;;;18.97;17.93;;;33.10;57.30;;;;;;5002842;28;20464;-69
2022/05/10 12:10:40;;;;;;;18.40;17.20;;;31.50;58.20;;;;;;5003995;28;20465;-69
2022/05/10 12:13:09;;;;;;;18.70;17.37;;;31.50;59.40;;;;;;5003156;28;20477;-68
2022/05/10 12:21:54;;;;;;;16.97;15.73;;;30.30;58.30;;;;;;5008413;28;20463;-69
2022/05/10 12:24:33;;;;;;;18.10;17.00;;;29.90;58.70;;;;;;5007826;28;20456;-69
2022/05/10 12:27:22;;;;;;;19.30;17.60;;;30.00;58.50;;;;;;5007804;28;20555;-69
2022/05/10 12:30:09;;;;;;;17.10;16.20;;;29.90;58.10;;;;;;5007990;28;20465;-69
2022/05/10 12:32:45;;;;;;;17.70;16.73;;;29.60;58.40;;;;;;5008654;28;21264;-69
2022/05/10 12:35:41;;;;;;;18.10;17.20;;;29.70;58.90;;;;;;5008056;28;20501;-69
2022/05/10 12:38:32;;;;;;;18.47;16.90;;;30.00;59.40;;;;;;5008654;28;20586;-69
2022/05/10 12:41:11;;;;;;;18.30;16.93;;;29.60;59.00;;;;;;5007212;28;20494;-68
2022/05/10 12:44:09;;;;;;;17.73;16.63;;;29.50;58.50;;;;;;5006215;28;20949;-69
2022/05/10 12:46:48;;;;;;;18.17;16.93;;;29.40;58.30;;;;;;5007396;28;20468;-70
2022/05/10 12:49:25;;;;;;;18.37;17.37;;;29.40;59.10;;;;;;5007636;28;20471;-69
2022/05/10 12:52:10;;;;;;;18.43;17.33;;;29.50;59.70;;;;;;5007097;28;20468;-69
2022/05/10 12:54:40;;;;;;;19.40;17.70;;;29.70;59.60;;;;;;5023669;28;20806;-70
2022/05/10 12:57:11;;;;;;;18.30;17.30;;;29.30;58.40;;;;;;5031381;28;21058;-68
2022/05/10 12:59:49;;;;;;;17.77;16.07;;;29.10;58.80;;;;;;5010854;28;20487;-69
2022/05/10 13:02:16;;;;;;;17.37;16.27;;;28.90;59.10;;;;;;5007107;28;20480;-69
2022/05/10 13:04:50;;;;;;;17.27;16.10;;;28.90;58.70;;;;;;5007453;28;20491;-69
2022/05/10 13:07:47;;;;;;;17.37;16.27;;;29.40;58.30;;;;;;5006617;28;20473;-69
2022/05/10 13:10:20;;;;;;;17.07;16.20;;;29.60;59.00;;;;;;5007746;28;20467;-69
2022/05/10 13:12:52;;;;;;;17.60;16.40;;;29.80;58.80;;;;;;5006018;28;20462;-69
2022/05/10 13:15:21;;;;;;;17.47;16.40;;;29.80;58.50;;;;;;5005920;28;20510;-69